Time;durP1;ratioP1;P1;durP2;ratioP2;P2;SDS_P1;SDS_P2;PMS_P1;PMS_P2;Temp;Humidity;BMP_temperature;BMP_pressure;BME280_temperature;BME280_humidity;BME280_pressure;Samples;Min_cycle;Max_cycle;Signal;HPM_P1;HPM_P2
2023/09/14 00:00:54;;;;;;;3.97;3.67;;;;;;;20.27;98.11;96181.25;5030776;28;20195;-85
2023/09/14 00:03:20;;;;;;;3.55;3.25;;;;;;;20.26;98.15;96177.84;5042568;28;20228;-84
2023/09/14 00:05:49;;;;;;;3.58;3.30;;;;;;;20.28;97.78;96173.19;5049770;28;20628;-85
2023/09/14 00:08:16;;;;;;;5.45;3.88;;;;;;;20.28;97.39;96175.00;5049552;28;20225;-85
2023/09/14 00:10:44;;;;;;;3.80;3.50;;;;;;;20.23;97.91;96175.66;5030347;28;20195;-85
2023/09/14 00:13:11;;;;;;;3.78;3.47;;;;;;;20.18;98.76;96180.78;5030179;28;20206;-84
2023/09/14 00:15:38;;;;;;;3.70;3.40;;;;;;;20.22;98.49;96186.34;5030393;28;20198;-85
2023/09/14 00:18:05;;;;;;;4.72;3.35;;;;;;;20.24;98.18;96184.31;5029557;28;20308;-84
2023/09/14 00:20:32;;;;;;;3.88;3.58;;;;;;;20.26;98.20;96183.06;5035846;28;20210;-85
2023/09/14 00:22:59;;;;;;;4.82;3.63;;;;;;;20.26;98.24;96180.47;5029535;28;20252;-85
2023/09/14 00:25:26;;;;;;;3.88;3.58;;;;;;;20.29;97.80;96174.78;5029658;28;20603;-84
2023/09/14 00:27:54;;;;;;;4.20;3.80;;;;;;;20.32;97.44;96174.34;5029775;28;20374;-85
2023/09/14 00:30:22;;;;;;;4.00;3.60;;;;;;;20.27;97.52;96171.59;5029774;28;20206;-85
2023/09/14 00:32:50;;;;;;;3.75;3.45;;;;;;;20.25;97.72;96168.41;5029638;28;20734;-85
2023/09/14 00:35:18;;;;;;;4.15;3.85;;;;;;;20.25;97.35;96167.59;5038516;28;20202;-84
2023/09/14 00:37:45;;;;;;;3.90;3.60;;;;;;;20.25;96.82;96163.16;5049777;28;20230;-85
2023/09/14 00:40:13;;;;;;;4.10;3.70;;;;;;;20.24;96.55;96166.81;5049455;28;20201;-85
2023/09/14 00:42:41;;;;;;;3.95;3.50;;;;;;;20.22;96.97;96160.19;5042666;28;20194;-84
2023/09/14 00:45:12;;;;;;;4.13;3.40;;;;;;;20.23;96.50;96162.59;5030044;28;20222;-85
2023/09/14 00:47:43;;;;;;;3.90;3.60;;;;;;;20.21;96.58;96161.22;5029887;28;20699;-84
2023/09/14 00:50:15;;;;;;;3.55;3.25;;;;;;;20.21;96.17;96153.38;5011639;28;20206;-85
2023/09/14 00:52:41;;;;;;;3.88;3.28;;;;;;;20.18;96.31;96154.63;5049341;28;20298;-84
2023/09/14 00:55:09;;;;;;;3.45;3.17;;;;;;;20.18;96.06;96146.00;5049165;28;20208;-85
2023/09/14 00:57:37;;;;;;;4.22;3.38;;;;;;;20.19;96.64;96153.63;5049318;28;20634;-85
2023/09/14 01:00:05;;;;;;;3.40;3.20;;;;;;;20.21;96.42;96148.16;5049356;28;20709;-85
2023/09/14 01:02:33;;;;;;;5.40;4.25;;;;;;;20.14;97.11;96153.47;5048542;28;20232;-84
2023/09/14 01:05:01;;;;;;;3.70;3.42;;;;;;;20.15;97.67;96159.50;5049013;28;20197;-84
2023/09/14 01:07:27;;;;;;;4.28;3.88;;;;;;;20.18;97.00;96152.03;5045875;28;20247;-85
2023/09/14 01:09:53;;;;;;;4.03;3.67;;;;;;;20.19;97.35;96148.41;5034524;28;20201;-84
2023/09/14 01:12:20;;;;;;;3.88;3.58;;;;;;;20.18;97.37;96157.25;5029028;28;20651;-84
2023/09/14 01:14:57;;;;;;;3.95;3.65;;;;;;;20.18;97.36;96153.84;5028678;28;20672;-84
2023/09/14 01:17:32;;;;;;;4.20;3.85;;;;;;;20.21;97.41;96159.41;5028470;28;20222;-85
2023/09/14 01:20:14;;;;;;;4.35;4.03;;;;;;;20.21;97.20;96159.41;5029349;28;20259;-84
2023/09/14 01:22:48;;;;;;;4.32;3.92;;;;;;;20.15;97.16;96155.09;5030161;28;20208;-84
2023/09/14 01:25:20;;;;;;;4.70;4.32;;;;;;;20.14;97.12;96161.31;5041526;28;20230;-84
2023/09/14 01:27:48;;;;;;;4.93;4.50;;;;;;;20.11;97.81;96164.38;5028861;28;20221;-85
2023/09/14 01:30:15;;;;;;;4.72;4.32;;;;;;;20.07;97.98;96168.44;5029023;28;20244;-85
2023/09/14 01:32:42;;;;;;;4.55;4.20;;;;;;;20.07;98.03;96163.22;5028944;28;20229;-84
2023/09/14 01:35:09;;;;;;;5.00;4.50;;;;;;;20.07;98.53;96172.88;5028457;28;20569;-85
2023/09/14 01:37:35;;;;;;;5.43;4.93;;;;;;;20.07;98.15;96173.69;5028792;28;20264;-84
2023/09/14 01:40:06;;;;;;;5.80;5.30;;;;;;;20.07;98.21;96168.44;5039285;28;20201;-85
2023/09/14 01:42:33;;;;;;;5.53;5.03;;;;;;;20.08;98.25;96177.09;5042606;28;20202;-84
2023/09/14 01:45:02;;;;;;;5.35;4.75;;;;;;;20.04;99.29;96179.34;5028398;28;20198;-85
2023/09/14 01:47:29;;;;;;;6.03;5.43;;;;;;;20.06;99.34;96181.75;5028496;28;20734;-84
2023/09/14 01:49:55;;;;;;;8.13;5.10;;;;;;;20.06;98.98;96177.31;5028456;28;20202;-84
2023/09/14 01:52:22;;;;;;;5.75;5.25;;;;;;;20.07;98.93;96176.28;5028732;28;20194;-84
2023/09/14 01:54:48;;;;;;;5.82;5.32;;;;;;;20.09;98.48;96168.22;5028446;28;20810;-85
2023/09/14 01:57:15;;;;;;;6.32;5.57;;;;;;;20.09;98.22;96161.19;5048221;28;20225;-85
2023/09/14 01:59:41;;;;;;;5.78;5.28;;;;;;;20.08;98.46;96158.78;5048823;28;20205;-85
2023/09/14 02:02:09;;;;;;;5.97;5.47;;;;;;;20.06;98.24;96160.81;5048645;28;20202;-85
2023/09/14 02:04:35;;;;;;;6.15;5.55;;;;;;;20.05;98.32;96167.06;5047909;28;20201;-85
2023/09/14 02:07:02;;;;;;;6.10;5.60;;;;;;;19.99;98.38;96166.97;5048211;28;20217;-84
2023/09/14 02:09:28;;;;;;;5.82;5.32;;;;;;;19.99;98.00;96163.53;5037823;28;20221;-85
2023/09/14 02:11:55;;;;;;;6.28;5.68;;;;;;;19.96;98.33;96172.63;5033436;28;20206;-85
2023/09/14 02:14:21;;;;;;;5.68;5.18;;;;;;;19.89;99.28;96178.94;5029862;28;20203;-84
2023/09/14 02:16:47;;;;;;;5.63;5.13;;;;;;;19.93;99.31;96178.28;5032151;28;20204;-84
2023/09/14 02:19:15;;;;;;;5.90;5.40;;;;;;;19.96;99.27;96195.34;5031359;28;20567;-85
2023/09/14 02:21:42;;;;;;;6.20;5.50;;;;;;;19.94;99.25;96192.97;5032105;28;20690;-84
2023/09/14 02:24:08;;;;;;;6.07;5.47;;;;;;;19.94;98.88;96192.97;5032081;28;20213;-85
2023/09/14 02:26:35;;;;;;;6.20;5.70;;;;;;;19.92;99.12;96192.38;5047874;28;20860;-85
2023/09/14 02:29:01;;;;;;;6.15;5.28;;;;;;;19.90;99.42;96197.03;5048145;28;20233;-85
2023/09/14 02:31:28;;;;;;;6.05;5.43;;;;;;;19.92;99.37;96196.81;5052214;28;20203;-85
2023/09/14 02:33:55;;;;;;;6.60;6.00;;;;;;;19.88;99.74;96193.81;5051834;28;20212;-85
2023/09/14 02:36:23;;;;;;;6.63;5.82;;;;;;;19.89;99.42;96203.25;5052663;28;20201;-84
2023/09/14 02:38:49;;;;;;;6.43;5.78;;;;;;;19.85;100.00;96212.56;5052269;28;20276;-85
2023/09/14 02:41:16;;;;;;;6.78;6.18;;;;;;;19.82;100.00;96218.22;5043370;28;20199;-84
2023/09/14 02:43:43;;;;;;;7.82;6.32;;;;;;;19.83;100.00;96219.81;5016097;28;20225;-85
2023/09/14 02:46:09;;;;;;;7.07;6.47;;;;;;;19.85;100.00;96219.59;5041687;28;20237;-85
2023/09/14 02:48:36;;;;;;;6.93;6.32;;;;;;;19.86;100.00;96222.00;5051418;28;20221;-84
2023/09/14 02:51:03;;;;;;;7.80;6.60;;;;;;;19.88;100.00;96234.84;5051184;28;20209;-85
2023/09/14 02:53:30;;;;;;;7.72;6.97;;;;;;;19.86;100.00;96229.03;5051504;28;20209;-84
2023/09/14 02:55:57;;;;;;;7.50;6.80;;;;;;;19.82;100.00;96241.72;5051765;28;20201;-84
2023/09/14 02:58:24;;;;;;;8.25;7.47;;;;;;;19.83;100.00;96237.31;5051589;28;20573;-85
2023/09/14 03:00:50;;;;;;;8.18;7.40;;;;;;;19.81;100.00;96241.97;5048134;28;20659;-84
2023/09/14 03:03:19;;;;;;;8.73;7.05;;;;;;;19.76;100.00;96258.31;5051176;28;20212;-84
2023/09/14 03:05:48;;;;;;;8.82;7.47;;;;;;;19.82;100.00;96252.19;5051306;28;20225;-85
2023/09/14 03:08:14;;;;;;;8.07;7.30;;;;;;;19.85;100.00;96249.16;5031780;28;20223;-84
2023/09/14 03:10:43;;;;;;;8.10;7.30;;;;;;;19.89;100.00;96246.91;5016663;28;20203;-84
2023/09/14 03:13:10;;;;;;;7.57;6.88;;;;;;;19.85;100.00;96258.78;5011928;28;20548;-84
2023/09/14 03:15:36;;;;;;;9.23;8.10;;;;;;;19.84;100.00;96257.19;5016744;28;20309;-85
2023/09/14 03:18:03;;;;;;;8.23;7.30;;;;;;;19.90;100.00;96264.97;5049974;28;20236;-84
2023/09/14 03:20:29;;;;;;;8.93;8.07;;;;;;;19.95;100.00;96264.34;5023349;28;20249;-85
2023/09/14 03:22:56;;;;;;;10.13;9.13;;;;;;;19.97;100.00;96254.47;5031281;28;20722;-84
2023/09/14 03:25:22;;;;;;;8.85;7.95;;;;;;;19.91;100.00;96252.72;5030205;28;20278;-85
2023/09/14 03:27:50;;;;;;;9.82;8.80;;;;;;;19.87;100.00;96264.63;5030758;28;20226;-85
2023/09/14 03:30:16;;;;;;;10.48;9.52;;;;;;;19.85;100.00;96267.44;5031379;28;20716;-84
2023/09/14 03:32:43;;;;;;;10.15;9.25;;;;;;;19.87;100.00;96268.03;5039261;28;20207;-84
2023/09/14 03:35:09;;;;;;;10.18;9.27;;;;;;;19.92;100.00;96259.53;5050955;28;20577;-84
2023/09/14 03:37:36;;;;;;;10.30;9.40;;;;;;;19.86;100.00;96261.19;5041550;28;20229;-85
2023/09/14 03:40:04;;;;;;;10.68;9.68;;;;;;;19.89;100.00;96258.16;5009536;28;20237;-85
2023/09/14 03:42:31;;;;;;;10.27;9.38;;;;;;;19.87;100.00;96265.41;5030690;28;20202;-85
2023/09/14 03:44:59;;;;;;;11.05;10.05;;;;;;;19.86;100.00;96263.81;5030929;28;20209;-85
2023/09/14 03:47:25;;;;;;;10.68;9.77;;;;;;;19.85;100.00;96270.06;5029552;28;20225;-85
2023/09/14 03:49:52;;;;;;;11.55;10.45;;;;;;;19.87;100.00;96268.03;5048665;28;20792;-84
2023/09/14 03:52:18;;;;;;;11.15;10.10;;;;;;;19.87;100.00;96272.44;5050535;28;20205;-84
2023/09/14 03:54:45;;;;;;;11.63;10.52;;;;;;;19.91;100.00;96263.97;5050652;28;20768;-85
2023/09/14 03:57:14;;;;;;;11.07;10.07;;;;;;;19.95;100.00;96264.34;5049960;28;20249;-85
2023/09/14 03:59:41;;;;;;;11.00;10.10;;;;;;;19.94;100.00;96262.72;5050428;28;20667;-84
2023/09/14 04:02:09;;;;;;;11.50;10.40;;;;;;;19.98;100.00;96274.34;5050380;28;20201;-85
2023/09/14 04:04:35;;;;;;;11.00;9.90;;;;;;;19.90;100.00;96296.34;5036000;28;20198;-84
2023/09/14 04:07:02;;;;;;;11.55;10.45;;;;;;;19.91;100.00;96295.34;5043590;28;20243;-84
2023/09/14 04:09:29;;;;;;;10.18;9.27;;;;;;;19.97;100.00;96291.06;5039468;28;20289;-84
2023/09/14 04:11:56;;;;;;;11.85;10.65;;;;;;;19.98;100.00;96288.22;5030244;28;20205;-84
2023/09/14 04:14:22;;;;;;;11.20;10.10;;;;;;;19.99;100.00;96287.22;5030143;28;20241;-85
2023/09/14 04:16:51;;;;;;;12.00;10.90;;;;;;;20.00;100.00;96280.97;5030522;28;20281;-85
2023/09/14 04:19:18;;;;;;;11.65;10.55;;;;;;;20.00;100.00;96273.13;5029880;28;20190;-84
2023/09/14 04:21:45;;;;;;;11.20;10.20;;;;;;;19.98;100.00;96277.78;5044195;28;20205;-84
2023/09/14 04:24:12;;;;;;;11.55;10.55;;;;;;;19.97;100.00;96291.06;5049957;28;20209;-84
2023/09/14 04:26:38;;;;;;;11.82;10.73;;;;;;;19.97;100.00;96288.44;5031165;28;20225;-84
2023/09/14 04:29:05;;;;;;;12.32;11.02;;;;;;;19.95;100.00;96285.25;5030259;28;20218;-85
2023/09/14 04:31:31;;;;;;;12.23;11.02;;;;;;;19.95;100.00;96299.13;5029798;28;20721;-84
2023/09/14 04:33:58;;;;;;;12.48;11.27;;;;;;;19.96;100.00;96297.31;5019819;28;20214;-84
2023/09/14 04:36:26;;;;;;;11.38;10.13;;;;;;;19.94;100.00;96299.34;5017632;28;20201;-84
2023/09/14 04:38:52;;;;;;;11.77;10.75;;;;;;;19.94;100.00;96299.34;5048746;28;20279;-84
2023/09/14 04:41:19;;;;;;;12.50;11.40;;;;;;;19.94;100.00;96304.56;5049612;28;20674;-85
2023/09/14 04:43:45;;;;;;;12.50;11.38;;;;;;;19.94;100.00;96305.34;5033966;28;20217;-84
2023/09/14 04:46:12;;;;;;;12.55;11.45;;;;;;;19.96;100.00;96297.31;5029584;28;20209;-84
2023/09/14 04:48:38;;;;;;;13.32;12.13;;;;;;;19.88;100.00;96314.06;5029221;28;20885;-85
2023/09/14 04:51:05;;;;;;;13.35;12.07;;;;;;;19.91;100.00;96311.00;5029972;28;20621;-85
2023/09/14 04:53:32;;;;;;;12.68;10.98;;;;;;;19.94;100.00;96307.16;5040399;28;21005;-84
2023/09/14 04:55:59;;;;;;;13.55;12.30;;;;;;;19.92;100.00;96311.81;5051279;28;20209;-84
2023/09/14 04:58:26;;;;;;;14.13;12.73;;;;;;;19.89;100.00;96320.09;5050268;28;20902;-84
2023/09/14 05:00:52;;;;;;;13.15;11.80;;;;;;;19.88;100.00;96315.88;5023130;28;20206;-84
2023/09/14 05:03:20;;;;;;;12.73;11.60;;;;;;;19.89;100.00;96314.84;5009367;28;20199;-84
2023/09/14 05:05:51;;;;;;;27.88;15.98;;;;;;;19.73;100.00;96331.91;5009787;28;20217;-84
2023/09/14 05:08:18;;;;;;;17.40;14.23;;;;;;;19.62;100.00;96337.84;5010773;28;20602;-84
2023/09/14 05:10:45;;;;;;;24.33;15.30;;;;;;;19.47;100.00;96350.38;5044893;28;20209;-84
2023/09/14 05:13:12;;;;;;;26.35;22.58;;;;;;;19.49;100.00;96366.63;5049220;28;20209;-85
2023/09/14 05:15:38;;;;;;;28.85;26.20;;;;;;;19.59;100.00;96361.78;5049224;28;20197;-85
2023/09/14 05:18:05;;;;;;;17.25;13.80;;;;;;;19.60;100.00;96353.72;5030309;28;20718;-84
2023/09/14 05:20:32;;;;;;;13.82;12.43;;;;;;;19.72;100.00;96347.78;5029432;28;20212;-85
2023/09/14 05:22:58;;;;;;;14.10;12.77;;;;;;;19.70;100.00;96341.97;5028940;28;20202;-85
2023/09/14 05:25:25;;;;;;;17.20;14.73;;;;;;;19.65;100.00;96346.03;5035691;28;20201;-84
2023/09/14 05:27:53;;;;;;;24.02;21.70;;;;;;;19.70;100.00;96344.59;5048637;28;20287;-84
2023/09/14 05:30:22;;;;;;;19.25;17.48;;;;;;;19.76;100.00;96335.91;5038385;28;20198;-84
2023/09/14 05:32:49;;;;;;;13.57;12.38;;;;;;;19.81;100.00;96326.41;5007431;28;20248;-84
2023/09/14 05:35:17;;;;;;;14.00;12.70;;;;;;;19.84;100.00;96318.13;5029230;28;20206;-84
2023/09/14 05:37:45;;;;;;;13.70;12.15;;;;;;;19.84;100.00;96314.69;5028698;28;20230;-84
2023/09/14 05:40:12;;;;;;;14.45;13.05;;;;;;;19.83;100.00;96319.13;5029101;28;20206;-85
2023/09/14 05:42:39;;;;;;;13.23;12.02;;;;;;;19.86;100.00;96310.84;5039495;28;20209;-84
2023/09/14 05:45:08;;;;;;;14.18;12.65;;;;;;;19.88;100.00;96305.41;5048823;28;20204;-85
2023/09/14 05:47:35;;;;;;;13.35;12.05;;;;;;;19.92;100.00;96307.38;5048109;28;20934;-85
2023/09/14 05:50:03;;;;;;;13.20;11.85;;;;;;;19.97;100.00;96310.16;5048607;28;20209;-85
2023/09/14 05:52:30;;;;;;;13.15;11.85;;;;;;;19.97;100.00;96315.38;5048553;28;20709;-84
2023/09/14 05:54:57;;;;;;;14.10;12.70;;;;;;;19.98;100.00;96322.22;5047759;28;20213;-84
2023/09/14 05:57:26;;;;;;;15.45;13.88;;;;;;;19.99;100.00;96320.41;5028618;28;20221;-84
2023/09/14 05:59:52;;;;;;;14.88;13.57;;;;;;;19.93;100.00;96332.50;5048301;28;20583;-83
2023/09/14 06:02:20;;;;;;;15.25;13.40;;;;;;;19.93;100.00;96353.44;5048188;28;20201;-85
2023/09/14 06:04:47;;;;;;;15.40;13.77;;;;;;;19.97;100.00;96343.34;5048718;28;20617;-84
2023/09/14 06:07:14;;;;;;;15.30;13.75;;;;;;;19.89;100.00;96339.19;5048772;28;20229;-84
2023/09/14 06:09:40;;;;;;;15.77;14.18;;;;;;;19.84;100.00;96343.44;5036111;28;20194;-84
2023/09/14 06:12:07;;;;;;;16.15;14.52;;;;;;;19.87;100.00;96345.63;5029151;28;20206;-84
2023/09/14 06:14:34;;;;;;;17.75;15.93;;;;;;;19.78;100.00;96347.75;5041850;28;20205;-84
2023/09/14 06:17:00;;;;;;;18.15;16.25;;;;;;;19.78;100.00;96360.00;5038422;28;20727;-84
2023/09/14 06:19:28;;;;;;;19.48;17.60;;;;;;;19.84;100.00;96338.22;5028637;28;20237;-84
2023/09/14 06:21:55;;;;;;;21.05;19.05;;;;;;;19.74;100.00;96335.31;5028943;28;20198;-84
2023/09/14 06:24:21;;;;;;;21.05;18.95;;;;;;;19.71;100.00;96343.59;5028834;28;20202;-84
2023/09/14 06:26:48;;;;;;;20.77;18.42;;;;;;;19.76;100.00;96347.16;5015654;28;20227;-84
2023/09/14 06:29:16;;;;;;;20.48;18.50;;;;;;;19.80;100.00;96339.69;5014659;28;20209;-84
2023/09/14 06:31:42;;;;;;;20.92;18.80;;;;;;;19.78;100.00;96346.94;5048093;28;20593;-85
2023/09/14 06:34:10;;;;;;;19.83;17.83;;;;;;;19.84;100.00;96343.44;5048046;28;20201;-84
2023/09/14 06:36:38;;;;;;;21.23;19.15;;;;;;;19.87;100.00;96341.22;5048103;28;20263;-84
2023/09/14 06:39:04;;;;;;;24.20;21.73;;;;;;;19.93;100.00;96335.13;5047888;28;20225;-84
2023/09/14 06:41:31;;;;;;;24.92;22.40;;;;;;;19.94;100.00;96312.41;5048531;28;20208;-84
2023/09/14 06:43:57;;;;;;;24.35;22.10;;;;;;;19.86;100.00;96326.53;5031026;28;20210;-84
2023/09/14 06:46:24;;;;;;;23.80;21.60;;;;;;;19.94;100.00;96326.28;5037972;28;20202;-84
2023/09/14 06:48:50;;;;;;;23.92;21.73;;;;;;;19.97;100.00;96323.22;5048278;28;20739;-84
2023/09/14 06:51:17;;;;;;;23.20;21.10;;;;;;;19.97;100.00;96328.47;5046932;28;20350;-84
2023/09/14 06:53:45;;;;;;;23.85;21.55;;;;;;;19.88;100.00;96326.31;5020937;28;20202;-84
2023/09/14 06:56:11;;;;;;;24.10;21.80;;;;;;;19.80;100.00;96342.31;5026840;28;20203;-84
2023/09/14 06:58:38;;;;;;;22.50;20.33;;;;;;;19.90;100.00;96350.44;5028141;28;20218;-85
2023/09/14 07:01:05;;;;;;;22.10;20.08;;;;;;;19.93;100.00;96339.56;5028557;28;20232;-84
2023/09/14 07:03:34;;;;;;;23.35;21.08;;;;;;;19.85;100.00;96329.38;5049811;28;20208;-85
2023/09/14 07:06:01;;;;;;;23.80;21.65;;;;;;;19.79;100.00;96331.06;5051614;28;20201;-84
2023/09/14 07:08:27;;;;;;;22.67;20.63;;;;;;;19.67;100.00;96328.31;5048614;28;20229;-85
2023/09/14 07:10:55;;;;;;;23.73;21.45;;;;;;;19.76;100.00;96328.06;5031475;28;20810;-84
2023/09/14 07:13:22;;;;;;;23.75;21.55;;;;;;;19.79;100.00;96328.44;5031475;28;20202;-84
2023/09/14 07:15:49;;;;;;;23.27;21.13;;;;;;;19.76;100.00;96333.28;5031715;28;20206;-84
2023/09/14 07:18:26;;;;;;;22.88;20.80;;;;;;;19.88;100.00;96348.03;5037265;28;20225;-84
2023/09/14 07:20:52;;;;;;;26.10;23.67;;;;;;;19.84;99.03;96309.47;5051229;28;20803;-84
2023/09/14 07:23:19;;;;;;;25.73;23.27;;;;;;;19.80;98.15;96293.44;5036265;28;20629;-84
2023/09/14 07:25:45;;;;;;;24.45;22.10;;;;;;;19.80;99.62;96319.59;5031283;28;20202;-85
2023/09/14 07:28:13;;;;;;;26.25;23.65;;;;;;;19.80;100.00;96334.47;5030898;28;20225;-84
2023/09/14 07:30:39;;;;;;;26.48;23.98;;;;;;;19.77;100.00;96340.13;5031506;28;20203;-84
2023/09/14 07:33:06;;;;;;;26.05;23.52;;;;;;;19.71;100.00;96359.25;5030857;28;20213;-85
2023/09/14 07:35:34;;;;;;;26.60;24.00;;;;;;;19.65;100.00;96348.63;5046090;28;20575;-85
2023/09/14 07:38:01;;;;;;;26.30;23.38;;;;;;;19.59;100.00;96326.00;5050848;28;20218;-84
2023/09/14 07:40:27;;;;;;;26.02;23.55;;;;;;;19.63;100.00;96355.09;5050771;28;20225;-84
2023/09/14 07:42:54;;;;;;;26.52;23.95;;;;;;;19.79;100.00;96359.00;5042512;28;20202;-85
2023/09/14 07:45:21;;;;;;;26.20;23.88;;;;;;;19.94;100.00;96347.19;5030650;28;20209;-84
2023/09/14 07:47:48;;;;;;;26.63;24.17;;;;;;;19.95;100.00;96346.16;5030622;28;20229;-84
2023/09/14 07:50:14;;;;;;;27.98;25.17;;;;;;;19.95;100.00;96350.59;5028849;28;20205;-83
2023/09/14 07:52:41;;;;;;;28.27;25.63;;;;;;;19.81;100.00;96339.47;5049033;28;20228;-84
2023/09/14 07:55:08;;;;;;;28.00;25.40;;;;;;;19.83;100.00;96355.72;5051164;28;20205;-84
2023/09/14 07:57:34;;;;;;;27.23;24.58;;;;;;;19.77;100.00;96342.72;5051465;28;20308;-84
2023/09/14 08:00:01;;;;;;;28.13;25.48;;;;;;;19.71;100.00;96336.53;5050892;28;20208;-84
2023/09/14 08:02:29;;;;;;;27.33;24.70;;;;;;;19.82;98.88;96319.38;5050616;28;20212;-84
2023/09/14 08:04:55;;;;;;;27.85;25.15;;;;;;;19.82;99.87;96343.66;5050151;28;20201;-84
2023/09/14 08:07:22;;;;;;;26.48;24.00;;;;;;;19.93;97.11;96308.19;5046313;28;20237;-84
2023/09/14 08:09:48;;;;;;;25.83;23.60;;;;;;;19.94;94.99;96289.69;5037022;28;20281;-84
2023/09/14 08:12:15;;;;;;;24.73;22.30;;;;;;;20.08;94.55;96282.47;5030755;28;20213;-83
2023/09/14 08:14:41;;;;;;;24.08;21.80;;;;;;;20.13;92.09;96243.41;5029953;28;20201;-84
2023/09/14 08:17:08;;;;;;;24.10;22.00;;;;;;;20.21;91.93;96245.69;5029720;28;20217;-84
2023/09/14 08:19:35;;;;;;;24.00;21.90;;;;;;;20.26;92.13;96256.31;5030448;28;20234;-84
2023/09/14 08:22:03;;;;;;;24.52;22.40;;;;;;;20.30;92.90;96257.47;5034572;28;20202;-84
2023/09/14 08:24:30;;;;;;;24.85;22.55;;;;;;;20.35;93.45;96273.31;5057358;28;20236;-83
2023/09/14 08:26:56;;;;;;;25.45;23.15;;;;;;;20.42;95.80;96298.59;5032154;28;20213;-84
2023/09/14 08:29:23;;;;;;;28.00;25.38;;;;;;;20.33;95.93;96308.53;5030529;28;20236;-84
2023/09/14 08:31:50;;;;;;;25.15;22.67;;;;;;;20.46;96.17;96305.00;5032769;28;20229;-84
2023/09/14 08:34:16;;;;;;;25.02;22.73;;;;;;;20.49;95.97;96315.03;5031151;28;20208;-84
2023/09/14 08:36:44;;;;;;;25.38;23.00;;;;;;;20.62;95.25;96304.38;5031528;28;20423;-85
2023/09/14 08:39:10;;;;;;;25.25;23.02;;;;;;;20.68;95.36;96311.34;5038356;28;20278;-85
2023/09/14 08:41:40;;;;;;;27.48;24.98;;;;;;;20.64;95.20;96303.13;5049807;28;20210;-84
2023/09/14 08:44:07;;;;;;;24.65;22.30;;;;;;;20.79;93.79;96292.25;5030788;28;20198;-84
2023/09/14 08:46:35;;;;;;;24.73;22.52;;;;;;;20.89;93.67;96291.72;5021637;28;20209;-84
2023/09/14 08:49:06;;;;;;;26.95;24.48;;;;;;;21.00;93.38;96280.47;5029805;28;20891;-84
2023/09/14 08:51:34;;;;;;;24.08;21.98;;;;;;;21.25;93.05;96278.50;5029568;28;20194;-85
2023/09/14 08:54:02;;;;;;;23.60;21.50;;;;;;;21.44;89.12;96224.19;5028530;28;20201;-84
2023/09/14 08:56:31;;;;;;;23.55;21.52;;;;;;;21.58;86.78;96186.22;5047993;28;20252;-84
2023/09/14 08:59:01;;;;;;;21.95;20.05;;;;;;;21.60;84.99;96136.19;5049308;28;20225;-84
2023/09/14 09:01:28;;;;;;;23.08;20.92;;;;;;;21.61;82.82;96094.03;5049467;28;20208;-85
2023/09/14 09:03:54;;;;;;;20.92;19.20;;;;;;;21.78;81.66;96080.97;5049172;28;20211;-84
2023/09/14 09:06:21;;;;;;;20.40;18.60;;;;;;;22.33;78.27;96014.78;5049318;28;20212;-84
2023/09/14 09:08:48;;;;;;;19.52;17.85;;;;;;;22.99;78.28;96018.34;5043962;28;20220;-84
2023/09/14 09:11:15;;;;;;;19.65;18.05;;;;;;;23.39;76.75;95983.88;5037924;28;20840;-85
2023/09/14 09:13:45;;;;;;;19.75;18.05;;;;;;;23.43;75.55;95967.38;5055937;28;20228;-84
2023/09/14 09:16:13;;;;;;;20.08;18.17;;;;;;;23.18;76.49;95985.47;5036914;28;20656;-84
2023/09/14 09:19:05;;;;;;;19.40;17.83;;;;;;;23.35;75.43;95967.81;5032471;28;20214;-85
2023/09/14 09:21:34;;;;;;;19.20;17.60;;;;;;;23.78;73.27;95918.81;5041632;28;20228;-84
2023/09/14 09:24:01;;;;;;;19.95;18.05;;;;;;;23.89;72.59;95890.72;5036652;28;20201;-84
2023/09/14 09:26:35;;;;;;;21.30;19.50;;;;;;;23.58;73.59;95918.63;5036418;28;20332;-84
2023/09/14 09:29:13;;;;;;;20.08;18.45;;;;;;;23.28;76.01;95972.47;5060522;28;20232;-83
2023/09/14 09:31:43;;;;;;;21.10;19.33;;;;;;;23.01;75.67;95969.00;5052833;28;20216;-84
2023/09/14 09:34:10;;;;;;;21.58;19.63;;;;;;;22.84;75.20;95948.06;5050824;28;20201;-84
2023/09/14 09:36:37;;;;;;;20.73;18.92;;;;;;;22.78;76.83;95992.88;5049913;28;20205;-84
2023/09/14 09:39:05;;;;;;;18.60;17.05;;;;;;;22.74;78.32;96029.28;5049232;28;20221;-85
2023/09/14 09:41:34;;;;;;;20.65;18.60;;;;;;;22.65;79.28;96049.91;5030902;28;20207;-85
2023/09/14 09:44:05;;;;;;;20.17;18.38;;;;;;;22.71;79.52;96048.94;5035428;28;20342;-85
2023/09/14 09:46:33;;;;;;;20.17;18.48;;;;;;;22.87;77.62;96009.81;5048700;28;20237;-85
2023/09/14 09:49:00;;;;;;;19.02;17.33;;;;;;;22.97;78.47;96034.34;5048379;28;20237;-84
2023/09/14 09:51:28;;;;;;;20.15;18.23;;;;;;;22.82;78.06;96025.47;5047904;28;20202;-84
2023/09/14 09:54:05;;;;;;;22.13;20.08;;;;;;;22.83;79.01;96050.72;5048519;28;20281;-84
2023/09/14 09:56:35;;;;;;;32.17;29.42;;;;;;;22.71;78.80;96041.06;5048394;28;20247;-84
2023/09/14 09:59:04;;;;;;;24.33;22.02;;;;;;;22.97;78.08;96031.72;5045188;28;20248;-84
2023/09/14 10:01:31;;;;;;;19.73;17.85;;;;;;;23.34;77.68;96016.16;5048880;28;20255;-84
2023/09/14 10:03:59;;;;;;;19.10;17.40;;;;;;;23.66;76.88;96003.13;5047894;28;20205;-85
2023/09/14 10:06:26;;;;;;;20.35;18.35;;;;;;;23.80;73.28;95913.28;5048456;28;20229;-84
2023/09/14 10:08:53;;;;;;;17.52;16.08;;;;;;;24.04;73.52;95936.38;5042706;28;20217;-85
2023/09/14 10:11:22;;;;;;;17.98;16.33;;;;;;;24.20;71.27;95871.47;5028637;28;20193;-85
2023/09/14 10:13:51;;;;;;;17.88;16.38;;;;;;;24.26;70.80;95857.31;5017208;28;20232;-85
2023/09/14 10:16:23;;;;;;;16.10;14.48;;;;;;;24.48;71.44;95866.88;5039766;28;20285;-85
2023/09/14 10:18:53;;;;;;;16.27;14.82;;;;;;;24.55;68.81;95802.41;5047692;28;20637;-84
2023/09/14 10:21:22;;;;;;;14.63;13.38;;;;;;;24.71;69.09;95809.31;5048644;28;20288;-84
2023/09/14 10:23:49;;;;;;;17.17;15.77;;;;;;;24.73;67.03;95766.91;5048347;28;20256;-84
2023/09/14 10:26:15;;;;;;;15.88;14.48;;;;;;;24.76;67.18;95746.13;5033247;28;20194;-84
2023/09/14 10:28:42;;;;;;;15.98;14.48;;;;;;;24.71;67.23;95769.00;5027929;28;20230;-84
2023/09/14 10:31:12;;;;;;;26.63;24.27;;;;;;;24.37;66.77;95726.56;5029702;28;20194;-83
2023/09/14 10:33:38;;;;;;;21.10;19.15;;;;;;;24.18;67.30;95747.25;5048846;28;20206;-84
2023/09/14 10:36:06;;;;;;;21.25;19.35;;;;;;;24.00;69.13;95797.69;5049550;28;20205;-85
2023/09/14 10:38:34;;;;;;;23.75;21.40;;;;;;;23.75;68.69;95796.50;5027090;28;20225;-84
2023/09/14 10:41:01;;;;;;;19.70;17.73;;;;;;;23.76;69.32;95802.56;5030384;28;20613;-84
2023/09/14 10:43:28;;;;;;;16.38;14.95;;;;;;;23.87;69.36;95806.81;5020148;28;20203;-84
2023/09/14 10:46:00;;;;;;;19.25;17.38;;;;;;;23.87;67.56;95751.59;5013659;28;20210;-85
2023/09/14 10:48:30;;;;;;;23.02;20.92;;;;;;;23.86;67.38;95747.38;5035694;28;20229;-84
2023/09/14 10:50:58;;;;;;;21.20;19.20;;;;;;;23.84;68.46;95769.72;5052099;28;20205;-84
2023/09/14 10:53:24;;;;;;;17.70;16.20;;;;;;;23.63;67.31;95745.94;5051600;28;20205;-84
2023/09/14 10:55:51;;;;;;;16.75;15.25;;;;;;;23.55;67.01;95737.75;5051922;28;20721;-84
2023/09/14 10:58:18;;;;;;;16.48;15.07;;;;;;;23.68;67.82;95764.38;5051823;28;20217;-85
2023/09/14 11:00:44;;;;;;;15.68;14.38;;;;;;;23.78;69.08;95800.47;5051195;28;20828;-85
2023/09/14 11:03:12;;;;;;;15.77;14.30;;;;;;;24.00;68.87;95795.84;5048378;28;20208;-85
2023/09/14 11:05:42;;;;;;;15.82;14.32;;;;;;;23.97;67.08;95733.22;5051213;28;20267;-84
2023/09/14 11:08:09;;;;;;;15.20;13.73;;;;;;;24.09;67.68;95748.78;5037745;28;20218;-84
2023/09/14 11:10:37;;;;;;;21.30;19.40;;;;;;;24.10;67.67;95759.06;5031654;28;20194;-85
2023/09/14 11:13:32;;;;;;;17.15;15.68;;;;;;;23.99;65.64;95696.16;5031161;28;20676;-85
2023/09/14 11:16:06;;;;;;;16.52;15.02;;;;;;;23.97;67.08;95733.22;5031394;28;20270;-85
2023/09/14 11:18:50;;;;;;;15.45;14.00;;;;;;;24.00;67.86;95750.34;5030149;28;20268;-85
2023/09/14 11:21:45;;;;;;;15.10;13.80;;;;;;;24.10;66.50;95721.44;5046419;28;20200;-84